Time;durP1;ratioP1;P1;durP2;ratioP2;P2;SDS_P1;SDS_P2;PMS_P1;PMS_P2;Temp;Humidity;BMP_temperature;BMP_pressure;BME280_temperature;BME280_humidity;BME280_pressure;Samples;Min_cycle;Max_cycle;Signal;HPM_P1;HPM_P2
2023/11/29 12:32:17;;;;;;;1.70;1.30;;;;;;;;;;5561734;23;20400;-89
2023/11/29 12:34:44;;;;;;;1.45;1.35;;;;;;;;;;4960787;28;20039;-88
2023/11/29 12:37:15;;;;;;;1.85;1.60;;;;;;;;;;4959810;28;20027;-87
2023/11/29 12:39:42;;;;;;;1.40;1.30;;;;;;;;;;4959688;28;20093;-87
2023/11/29 12:42:09;;;;;;;2.53;2.10;;;;;;;;;;4977271;28;20054;-87
2023/11/29 12:44:35;;;;;;;1.88;1.50;;;;;;;;;;4977370;28;20172;-87
2023/11/29 12:47:01;;;;;;;1.65;1.13;;;;;;;;;;4959998;28;20058;-87
2023/11/29 12:49:27;;;;;;;1.45;1.35;;;;;;;;;;4977215;28;20031;-85
2023/11/29 17:47:38;;;;;;;20.50;17.20;;;;;;;;;;4941945;29;20353;-84
2023/11/29 17:50:04;;;;;;;17.65;13.63;;;;;;;;;;4920360;29;20134;-83
2023/11/29 17:52:30;;;;;;;18.85;12.70;;;;;;;;;;4937214;29;20028;-85
2023/11/29 17:54:55;;;;;;;5.88;5.22;;;;;;;;;;4952837;29;20037;-86
2023/11/29 17:57:21;;;;;;;8.77;7.35;;;;;;;;;;4956405;29;20027;-85
2023/11/29 17:59:46;;;;;;;9.43;7.05;;;;;;;;;;4956905;29;20046;-85
2023/11/29 18:02:12;;;;;;;11.32;7.25;;;;;;;;;;4954993;29;20020;-83
2023/11/29 18:04:37;;;;;;;8.55;6.82;;;;;;;;;;4938638;29;20031;-83
2023/11/29 18:07:03;;;;;;;19.58;14.73;;;;;;;;;;4955865;29;20470;-84
2023/11/29 18:09:28;;;;;;;7.57;6.25;;;;;;;;;;4956204;29;20114;-84
2023/11/29 18:11:54;;;;;;;11.88;8.70;;;;;;;;;;4938827;29;20039;-85
2023/11/29 18:14:19;;;;;;;11.02;8.43;;;;;;;;;;4938501;29;20027;-86
2023/11/29 18:16:45;;;;;;;15.07;11.27;;;;;;;;;;4939126;29;20023;-84
2023/11/29 18:19:10;;;;;;;13.50;8.80;;;;;;;;;;4938773;29;20438;-82
2023/11/29 18:21:36;;;;;;;11.23;7.35;;;;;;;;;;4954842;29;20106;-83
2023/11/29 18:24:03;;;;;;;7.53;5.50;;;;;;;;;;4954888;29;20360;-84
2023/11/29 18:26:28;;;;;;;6.10;4.78;;;;;;;;;;4938739;29;20015;-88
2023/11/29 18:28:54;;;;;;;18.50;10.77;;;;;;;;;;4955661;29;20393;-82
2023/11/29 18:31:20;;;;;;;14.48;9.65;;;;;;;;;;4955536;29;20421;-85
2023/11/29 18:33:45;;;;;;;10.02;7.80;;;;;;;;;;4938605;29;20438;-83
2023/11/29 18:36:11;;;;;;;12.63;7.90;;;;;;;;;;4955801;29;20031;-82
2023/11/29 18:38:37;;;;;;;13.95;8.43;;;;;;;;;;4955606;29;20035;-83
2023/11/29 18:41:03;;;;;;;14.55;10.25;;;;;;;;;;4955586;29;20031;-82
2023/11/29 18:43:29;;;;;;;14.65;9.65;;;;;;;;;;4955547;29;20389;-80
2023/11/29 18:45:55;;;;;;;14.02;9.10;;;;;;;;;;4955832;29;20027;-81
2023/11/29 18:48:21;;;;;;;18.45;10.73;;;;;;;;;;4955665;28;20489;-82
2023/11/29 18:50:46;;;;;;;12.57;8.23;;;;;;;;;;4955346;28;20118;-83
2023/11/29 18:53:13;;;;;;;13.60;10.43;;;;;;;;;;4939696;28;20393;-81
2023/11/29 18:55:38;;;;;;;11.25;8.93;;;;;;;;;;4959749;28;20455;-80
2023/11/29 18:58:04;;;;;;;11.32;9.80;;;;;;;;;;4959589;28;20051;-83
2023/11/29 19:00:30;;;;;;;16.48;10.85;;;;;;;;;;4942380;29;20090;-83
2023/11/29 19:02:55;;;;;;;12.68;9.88;;;;;;;;;;4959559;29;20027;-83
2023/11/29 19:05:21;;;;;;;16.45;11.27;;;;;;;;;;4941944;29;20024;-83
2023/11/29 19:07:46;;;;;;;12.73;9.88;;;;;;;;;;4941955;28;20023;-82
2023/11/29 19:10:12;;;;;;;16.75;10.07;;;;;;;;;;4942106;29;20478;-83
2023/11/29 19:12:37;;;;;;;24.67;15.10;;;;;;;;;;4959240;28;20031;-83
2023/11/29 19:15:04;;;;;;;22.58;14.98;;;;;;;;;;4958963;29;20024;-82
2023/11/29 19:17:29;;;;;;;19.13;12.88;;;;;;;;;;4959024;28;20491;-81
2023/11/29 19:19:55;;;;;;;21.63;14.13;;;;;;;;;;4959196;28;20054;-81
2023/11/29 19:22:21;;;;;;;15.68;11.68;;;;;;;;;;4941727;29;20462;-83
2023/11/29 19:24:47;;;;;;;15.63;10.48;;;;;;;;;;4957578;29;20114;-83
2023/11/29 19:27:13;;;;;;;17.92;11.95;;;;;;;;;;4958778;28;20110;-84
2023/11/29 19:29:39;;;;;;;15.13;10.75;;;;;;;;;;4957604;28;20027;-82
2023/11/29 19:32:04;;;;;;;15.18;9.65;;;;;;;;;;4961333;29;20030;-84
2023/11/29 19:34:30;;;;;;;9.23;5.72;;;;;;;;;;4944580;29;20020;-83
2023/11/29 19:36:55;;;;;;;7.82;6.07;;;;;;;;;;4960876;28;20031;-80
2023/11/29 19:39:21;;;;;;;14.13;11.32;;;;;;;;;;4960707;29;20106;-84
2023/11/29 19:41:47;;;;;;;18.15;11.75;;;;;;;;;;4959029;28;20382;-85
2023/11/29 19:44:12;;;;;;;18.20;12.93;;;;;;;;;;4959177;29;20106;-83
2023/11/29 19:46:37;;;;;;;;;;;;;;;;;;4959476;28;19910;-84
2023/11/29 19:49:03;;;;;;;;;;;;;;;;;;4941798;29;19914;-83
2023/11/29 19:51:28;;;;;;;;;;;;;;;;;;4959377;28;19914;-82
2023/11/29 19:53:54;;;;;;;;;;;;;;;;;;4959251;28;20026;-82
2023/11/29 19:56:19;;;;;;;14.80;8.20;;;;;;;;;;4959157;29;19914;-83
2023/11/29 19:58:45;;;;;;;13.40;8.52;;;;;;;;;;4958462;28;20043;-82
2023/11/29 20:01:10;;;;;;;14.52;9.32;;;;;;;;;;4958393;28;20462;-85
2023/11/29 20:03:36;;;;;;;14.38;9.13;;;;;;;;;;4941208;28;20126;-84
2023/11/29 20:06:01;;;;;;;14.23;9.30;;;;;;;;;;4940295;28;20035;-83
2023/11/29 20:08:27;;;;;;;14.75;8.63;;;;;;;;;;4941034;29;20489;-82
2023/11/29 20:10:56;;;;;;;12.43;8.65;;;;;;;;;;4941987;29;20046;-85
2023/11/29 20:13:25;;;;;;;13.80;8.85;;;;;;;;;;4941036;29;20546;-83
2023/11/29 20:15:53;;;;;;;13.55;9.27;;;;;;;;;;4941002;29;20059;-85
2023/11/29 20:18:20;;;;;;;13.85;9.73;;;;;;;;;;4940844;29;20478;-86
2023/11/29 20:20:46;;;;;;;14.80;9.52;;;;;;;;;;4940663;29;20470;-83
2023/11/29 20:23:12;;;;;;;15.88;10.02;;;;;;;;;;4940712;29;20061;-82
2023/11/29 20:25:37;;;;;;;15.77;10.38;;;;;;;;;;4958044;28;20140;-82
2023/11/29 20:28:02;;;;;;;17.17;11.35;;;;;;;;;;4957783;28;20381;-82
2023/11/29 20:30:28;;;;;;;19.13;10.70;;;;;;;;;;4940631;29;20059;-82
2023/11/29 20:32:54;;;;;;;16.25;10.80;;;;;;;;;;4958043;29;20530;-86
2023/11/29 20:35:20;;;;;;;16.77;11.27;;;;;;;;;;4942032;28;20028;-80
2023/11/29 20:37:45;;;;;;;14.43;10.90;;;;;;;;;;4959346;28;20367;-88
2023/11/29 20:40:13;;;;;;;15.80;10.95;;;;;;;;;;4961884;28;20433;-88
2023/11/29 20:42:39;;;;;;;17.10;10.20;;;;;;;;;;4959441;29;20031;-87
2023/11/29 20:45:06;;;;;;;13.95;9.23;;;;;;;;;;4958495;28;20106;-87
2023/11/29 20:47:32;;;;;;;13.38;9.18;;;;;;;;;;4958451;29;20070;-94
2023/11/29 20:49:58;;;;;;;12.68;9.13;;;;;;;;;;4958673;28;20516;-87
2023/11/29 20:52:23;;;;;;;15.35;8.95;;;;;;;;;;4958128;29;20370;-84
2023/11/29 20:54:49;;;;;;;14.55;8.15;;;;;;;;;;4957977;28;20047;-85
2023/11/29 20:57:15;;;;;;;16.05;9.80;;;;;;;;;;4957216;29;20035;-79
2023/11/29 20:59:40;;;;;;;12.25;8.90;;;;;;;;;;4960739;28;20426;-79
2023/11/29 21:02:06;;;;;;;17.60;9.35;;;;;;;;;;4961154;29;20167;-82
2023/11/29 21:04:31;;;;;;;15.23;9.65;;;;;;;;;;4945210;29;20031;-87
2023/11/29 21:06:58;;;;;;;15.05;8.40;;;;;;;;;;4944599;29;20019;-90
2023/11/29 21:09:23;;;;;;;14.02;8.65;;;;;;;;;;4930903;29;20032;-88
2023/11/29 21:11:48;;;;;;;13.57;8.43;;;;;;;;;;4932906;29;20055;-85
2023/11/29 21:14:14;;;;;;;13.20;8.68;;;;;;;;;;4940405;29;20083;-86
2023/11/29 21:16:40;;;;;;;13.20;8.57;;;;;;;;;;4925181;29;20055;-86
2023/11/29 21:19:06;;;;;;;15.98;9.27;;;;;;;;;;4921075;29;20034;-86
2023/11/29 21:21:31;;;;;;;11.95;8.82;;;;;;;;;;4921018;29;20035;-89
2023/11/29 21:23:57;;;;;;;17.33;10.60;;;;;;;;;;4925870;29;20046;-86
2023/11/29 21:26:22;;;;;;;13.32;9.32;;;;;;;;;;4927965;29;20106;-86
2023/11/29 21:28:47;;;;;;;14.10;8.77;;;;;;;;;;4936335;29;20059;-87
2023/11/29 21:31:13;;;;;;;13.95;9.25;;;;;;;;;;4940398;29;20445;-87
2023/11/29 21:33:39;;;;;;;14.27;9.15;;;;;;;;;;4939778;29;20390;-84
2023/11/29 21:36:05;;;;;;;13.63;9.70;;;;;;;;;;4957372;29;20031;-87
2023/11/29 21:38:31;;;;;;;14.23;9.38;;;;;;;;;;4939715;29;20035;-85
2023/11/29 21:40:56;;;;;;;13.23;9.07;;;;;;;;;;4938801;29;20027;-84
2023/11/29 21:43:22;;;;;;;17.15;9.80;;;;;;;;;;4956372;29;20023;-85
2023/11/29 21:45:47;;;;;;;16.27;9.45;;;;;;;;;;4939671;29;20118;-85
2023/11/29 21:48:12;;;;;;;16.77;10.55;;;;;;;;;;4939232;28;20055;-85
2023/11/29 21:50:38;;;;;;;15.90;9.50;;;;;;;;;;4939077;29;20059;-85
2023/11/29 21:53:03;;;;;;;16.73;10.00;;;;;;;;;;4956488;29;20097;-85
2023/11/29 21:55:29;;;;;;;18.88;10.45;;;;;;;;;;4939222;29;20038;-85
2023/11/29 21:57:54;;;;;;;14.98;9.82;;;;;;;;;;4939447;29;20020;-85
2023/11/29 22:00:20;;;;;;;17.48;9.70;;;;;;;;;;4939050;29;20023;-85
2023/11/29 22:02:45;;;;;;;20.85;12.32;;;;;;;;;;4939138;29;20035;-85
2023/11/29 22:05:11;;;;;;;16.70;10.32;;;;;;;;;;4939205;29;20027;-86
2023/11/29 22:07:37;;;;;;;14.35;9.70;;;;;;;;;;4956506;29;20031;-85
2023/11/29 22:10:03;;;;;;;13.35;9.95;;;;;;;;;;4956306;28;20034;-85
2023/11/29 22:12:29;;;;;;;13.10;8.98;;;;;;;;;;4933719;29;20034;-87
2023/11/29 22:14:54;;;;;;;14.95;9.07;;;;;;;;;;4939134;29;20019;-89
2023/11/29 22:17:20;;;;;;;13.35;8.85;;;;;;;;;;4956248;29;20027;-86
2023/11/29 22:19:45;;;;;;;19.33;11.63;;;;;;;;;;4947881;29;20034;-89
2023/11/29 22:22:11;;;;;;;18.92;11.75;;;;;;;;;;4936368;29;20031;-88
2023/11/29 22:24:36;;;;;;;19.02;11.40;;;;;;;;;;4938920;29;20023;-86
2023/11/29 22:27:02;;;;;;;51.78;22.70;;;;;;;;;;4938703;29;20089;-87
2023/11/29 22:29:28;;;;;;;45.45;19.60;;;;;;;;;;4921218;29;20066;-88
2023/11/29 22:31:54;;;;;;;23.00;13.15;;;;;;;;;;4920142;29;20088;-88
2023/11/29 22:34:20;;;;;;;15.55;9.35;;;;;;;;;;4920502;29;20122;-87
2023/11/29 22:36:46;;;;;;;14.10;8.90;;;;;;;;;;4934923;29;20038;-86
2023/11/29 22:39:12;;;;;;;14.65;8.98;;;;;;;;;;4955084;29;20031;-86
2023/11/29 22:41:37;;;;;;;34.72;18.48;;;;;;;;;;4956162;28;20039;-86
2023/11/29 22:44:04;;;;;;;45.72;22.92;;;;;;;;;;4938942;29;20027;-85
2023/11/29 22:46:30;;;;;;;16.02;10.13;;;;;;;;;;4955630;28;20023;-84
2023/11/29 22:48:56;;;;;;;15.38;8.20;;;;;;;;;;4955409;28;20146;-84
2023/11/29 22:51:23;;;;;;;18.92;11.18;;;;;;;;;;4955474;28;20419;-83
2023/11/29 22:53:49;;;;;;;13.27;9.20;;;;;;;;;;4938040;29;20104;-82
2023/11/29 22:56:15;;;;;;;17.40;8.88;;;;;;;;;;4959366;29;20423;-83
2023/11/29 22:58:45;;;;;;;12.20;8.70;;;;;;;;;;4939094;29;20035;-83
2023/11/29 23:01:15;;;;;;;13.25;9.13;;;;;;;;;;4938177;28;20126;-84
2023/11/29 23:03:43;;;;;;;;;;;;;;;;;;4938499;29;20058;-83
2023/11/29 23:06:12;;;;;;;11.30;7.15;;;;;;;;;;4954218;29;20282;-83
2023/11/29 23:08:37;;;;;;;14.95;8.15;;;;;;;;;;4955437;29;20031;-83
2023/11/29 23:11:04;;;;;;;12.20;8.05;;;;;;;;;;4954070;29;20483;-83
2023/11/29 23:13:30;;;;;;;12.65;8.45;;;;;;;;;;4954488;29;20110;-84
2023/11/29 23:15:55;;;;;;;12.45;8.35;;;;;;;;;;4938070;28;20094;-84
